Time;durP1;ratioP1;P1;durP2;ratioP2;P2;SDS_P1;SDS_P2;PMS_P1;PMS_P2;Temp;Humidity;BMP_temperature;BMP_pressure;BME280_temperature;BME280_humidity;BME280_pressure;Samples;Min_cycle;Max_cycle;Signal;HPM_P1;HPM_P2
2021/09/14 00:01:56;;;;;;;6.50;5.90;;;;;;;24.71;54.16;99597.95;1791627;79;21041;-75
2021/09/14 00:04:23;;;;;;;6.08;5.50;;;;;;;24.70;54.10;99594.94;1789399;78;21012;-75
2021/09/14 00:06:49;;;;;;;8.13;5.65;;;;;;;24.69;54.08;99598.75;1782985;79;21095;-75
2021/09/14 00:09:16;;;;;;;7.25;6.60;;;;;;;24.69;54.14;99604.19;1808837;77;21606;-76
2021/09/14 00:11:43;;;;;;;7.10;6.37;;;;;;;24.70;54.08;99602.53;1809947;79;21110;-77
2021/09/14 00:14:12;;;;;;;7.20;6.15;;;;;;;24.69;54.04;99605.54;1807392;78;21570;-77
2021/09/14 00:16:39;;;;;;;6.25;5.62;;;;;;;24.68;53.99;99606.06;1802667;78;21164;-76
2021/09/14 00:19:06;;;;;;;6.45;5.95;;;;;;;24.66;53.95;99604.70;1804096;78;21051;-75
2021/09/14 00:21:32;;;;;;;7.47;5.90;;;;;;;24.65;53.92;99605.80;1794072;78;21579;-76
2021/09/14 00:23:59;;;;;;;6.35;5.35;;;;;;;24.64;53.90;99600.08;1804452;78;21077;-75
2021/09/14 00:26:25;;;;;;;7.67;6.00;;;;;;;24.63;53.93;99603.89;1802507;77;21020;-74
2021/09/14 00:28:52;;;;;;;5.90;5.20;;;;;;;24.61;53.95;99606.86;1797004;77;21062;-75
2021/09/14 00:31:18;;;;;;;8.63;6.22;;;;;;;24.60;53.93;99602.50;1816390;77;21026;-75
2021/09/14 00:33:46;;;;;;;6.25;5.65;;;;;;;24.59;53.96;99597.33;1810054;78;21043;-75
2021/09/14 00:36:15;;;;;;;7.03;6.35;;;;;;;24.58;53.94;99599.78;1802313;79;21008;-75
2021/09/14 00:38:41;;;;;;;6.33;5.72;;;;;;;24.55;53.91;99598.42;1801022;79;21007;-75
2021/09/14 00:41:08;;;;;;;6.62;5.90;;;;;;;24.56;53.98;99601.94;1812434;77;21060;-75
2021/09/14 00:43:35;;;;;;;7.05;6.42;;;;;;;24.56;54.01;99593.80;1823911;78;21012;-76
2021/09/14 00:46:02;;;;;;;6.17;5.58;;;;;;;24.55;53.91;99600.30;1831923;78;21016;-75
2021/09/14 00:48:29;;;;;;;6.60;6.00;;;;;;;24.53;53.80;99598.67;1830556;78;21134;-75
2021/09/14 00:50:57;;;;;;;6.20;5.70;;;;;;;24.52;53.84;99605.17;1815207;78;21535;-75
2021/09/14 00:53:25;;;;;;;7.20;6.50;;;;;;;24.50;53.83;99600.52;1823196;78;20987;-75
2021/09/14 00:55:52;;;;;;;7.10;6.40;;;;;;;24.50;53.88;99594.28;1781340;78;21066;-75
2021/09/14 00:58:19;;;;;;;6.62;6.03;;;;;;;24.48;53.85;99606.75;1830466;78;20984;-75
2021/09/14 01:00:46;;;;;;;7.30;6.33;;;;;;;24.47;53.87;99605.14;1827966;76;21513;-75
2021/09/14 01:03:12;;;;;;;7.45;6.75;;;;;;;24.46;53.84;99603.48;1828544;76;21003;-76
2021/09/14 01:05:39;;;;;;;6.78;6.17;;;;;;;24.46;53.89;99599.41;1832465;78;21570;-75
2021/09/14 01:08:07;;;;;;;7.45;6.75;;;;;;;24.45;53.86;99601.84;1822569;78;21061;-77
2021/09/14 01:10:35;;;;;;;7.67;6.97;;;;;;;24.45;53.82;99606.45;1821140;78;20976;-76
2021/09/14 01:13:03;;;;;;;6.65;6.08;;;;;;;24.44;53.78;99608.37;1830828;78;21532;-76
2021/09/14 01:15:30;;;;;;;7.20;6.60;;;;;;;24.42;53.79;99605.09;1830230;78;21106;-75
2021/09/14 01:17:57;;;;;;;8.15;6.97;;;;;;;24.42;53.75;99610.53;1821987;78;21011;-75
2021/09/14 01:20:23;;;;;;;8.28;7.05;;;;;;;24.41;53.76;99606.16;1820230;78;20994;-76
2021/09/14 01:22:51;;;;;;;6.58;6.08;;;;;;;24.41;53.81;99614.86;1822581;78;21027;-75
2021/09/14 01:25:22;;;;;;;7.45;6.55;;;;;;;24.40;53.83;99614.59;1829379;78;21034;-73
2021/09/14 01:27:51;;;;;;;6.70;6.10;;;;;;;24.40;53.80;99613.23;1835122;78;21031;-76
2021/09/14 01:30:22;;;;;;;8.73;7.60;;;;;;;24.39;53.77;99611.04;1761009;80;21565;-74
2021/09/14 01:32:53;;;;;;;8.23;7.42;;;;;;;24.38;53.72;99612.14;1742750;81;22234;-73
2021/09/14 01:35:31;;;;;;;8.35;7.58;;;;;;;24.36;53.71;99617.02;1751028;81;21093;-73
2021/09/14 01:37:59;;;;;;;15.28;13.78;;;;;;;24.34;53.69;99618.63;1752418;81;21115;-72
2021/09/14 01:40:27;;;;;;;8.88;7.97;;;;;;;24.33;53.73;99618.88;1753902;81;21013;-73
2021/09/14 01:42:56;;;;;;;8.98;7.85;;;;;;;24.32;53.69;99622.69;1758786;80;21004;-72
2021/09/14 01:45:25;;;;;;;7.85;7.15;;;;;;;24.30;53.73;99618.88;1799659;79;21025;-72
2021/09/14 01:47:51;;;;;;;7.87;7.12;;;;;;;24.29;53.69;99624.56;1786697;79;22062;-73
2021/09/14 01:50:18;;;;;;;7.62;7.03;;;;;;;24.28;53.70;99621.03;1792882;78;21516;-71
2021/09/14 01:52:45;;;;;;;9.08;8.00;;;;;;;24.28;53.65;99625.63;1787900;79;20988;-73
2021/09/14 01:57:42;;;;;;;7.95;7.22;;;;;;;24.30;53.63;99618.88;1802596;78;22612;-73
2021/09/14 02:00:19;;;;;;;7.70;7.05;;;;;;;24.23;53.62;99624.25;1777102;80;21088;-73
2021/09/14 03:00:04;;;;;;;8.90;8.10;;;;;;;23.97;52.93;99641.71;1757836;80;21026;-78
2021/09/14 03:02:31;;;;;;;7.40;6.70;;;;;;;23.96;52.86;99652.27;1772603;80;21030;-79
2021/09/14 03:04:58;;;;;;;8.00;6.55;;;;;;;23.96;52.88;99655.53;1761935;80;21132;-79
2021/09/14 03:07:25;;;;;;;7.30;6.70;;;;;;;23.96;52.87;99659.05;1765085;80;21026;-78
2021/09/14 03:09:52;;;;;;;7.40;6.70;;;;;;;23.96;52.86;99659.59;1767287;79;21495;-78
2021/09/14 03:12:20;;;;;;;7.40;6.70;;;;;;;23.96;52.81;99660.95;1770599;79;20930;-84
2021/09/14 03:14:49;;;;;;;7.15;6.55;;;;;;;23.96;52.72;99665.02;1766329;79;20973;-83
2021/09/14 03:17:16;;;;;;;7.55;6.90;;;;;;;23.93;52.67;99663.11;1759208;80;21019;-83
2021/09/14 03:19:43;;;;;;;7.75;7.12;;;;;;;23.93;52.63;99662.27;1771527;80;21017;-84
2021/09/14 03:22:10;;;;;;;8.00;7.20;;;;;;;23.93;52.62;99666.34;1761666;80;21479;-81
2021/09/14 03:24:37;;;;;;;7.95;6.97;;;;;;;23.93;52.63;99666.34;1772588;79;21006;-81
2021/09/14 03:27:04;;;;;;;9.10;8.20;;;;;;;23.94;52.60;99667.98;1777319;79;21037;-81
2021/09/14 03:29:31;;;;;;;8.85;7.65;;;;;;;23.93;52.56;99667.69;1782625;79;21097;-84
2021/09/14 03:31:57;;;;;;;7.92;7.22;;;;;;;23.93;52.57;99670.41;1770979;80;21013;-82
2021/09/14 03:34:24;;;;;;;7.53;6.72;;;;;;;23.93;52.47;99671.25;1769470;80;21510;-82
2021/09/14 03:36:51;;;;;;;7.65;6.95;;;;;;;23.93;52.42;99673.95;1761672;80;21055;-82
2021/09/14 03:39:17;;;;;;;8.50;7.45;;;;;;;23.94;52.44;99676.94;1770151;80;21179;-84
2021/09/14 03:41:44;;;;;;;8.70;7.97;;;;;;;23.93;52.38;99678.03;1771957;79;21020;-83
2021/09/14 03:44:12;;;;;;;14.47;12.90;;;;;;;23.94;52.33;99677.48;1763056;80;21525;-85
2021/09/14 03:46:39;;;;;;;9.53;8.65;;;;;;;23.93;52.36;99678.03;1769784;80;21085;-84
2021/09/14 03:49:06;;;;;;;8.30;7.47;;;;;;;23.93;52.35;99678.03;1776005;80;21057;-84
2021/09/14 03:51:36;;;;;;;9.55;8.73;;;;;;;23.94;52.29;99682.91;1766981;80;21003;-84
2021/09/14 03:54:03;;;;;;;10.18;7.97;;;;;;;23.94;52.24;99680.20;1775332;80;20959;-85
2021/09/14 03:56:29;;;;;;;8.80;8.00;;;;;;;23.93;52.24;99680.73;1776237;80;20994;-84
2021/09/14 03:58:56;;;;;;;8.85;7.95;;;;;;;23.93;52.19;99685.33;1760962;80;21108;-82
2021/09/14 04:01:23;;;;;;;7.90;7.17;;;;;;;23.94;52.21;99685.62;1771623;80;20975;-81
2021/09/14 04:03:57;;;;;;;9.23;8.20;;;;;;;23.93;52.23;99688.04;1759426;80;20971;-82
2021/09/14 04:08:53;;;;;;;9.35;8.45;;;;;;;23.95;52.17;99687.24;1754267;80;21554;-82
2021/09/14 04:11:23;;;;;;;8.38;7.58;;;;;;;23.96;52.10;99689.44;1762053;80;21440;-80
2021/09/14 04:13:53;;;;;;;8.85;8.05;;;;;;;23.96;52.03;99691.61;1759657;79;21127;-80
2021/09/14 04:16:20;;;;;;;8.85;8.05;;;;;;;23.97;51.97;99691.06;1762611;80;21050;-78
2021/09/14 04:18:49;;;;;;;9.15;8.18;;;;;;;23.94;51.88;99695.92;1761046;80;21003;-78
2021/09/14 04:21:16;;;;;;;11.45;8.28;;;;;;;23.94;51.89;99700.00;1767028;80;21022;-81
2021/09/14 04:23:42;;;;;;;9.43;8.13;;;;;;;23.94;51.88;99701.90;1765736;79;21614;-77
2021/09/14 04:26:09;;;;;;;9.40;8.30;;;;;;;23.93;52.21;99709.74;1764010;80;21003;-80
2021/09/14 04:28:37;;;;;;;8.83;7.87;;;;;;;23.94;52.48;99711.39;1766089;80;21721;-79
2021/09/14 04:31:04;;;;;;;11.57;8.73;;;;;;;23.94;52.66;99713.56;1766056;80;21085;-78
2021/09/14 04:33:32;;;;;;;11.53;10.45;;;;;;;23.93;52.63;99716.01;1751928;80;21030;-80
2021/09/14 04:35:59;;;;;;;9.85;8.85;;;;;;;23.95;52.55;99726.58;1737262;80;21467;-78
2021/09/14 04:38:27;;;;;;;11.73;9.70;;;;;;;23.94;52.50;99729.84;1767882;79;21050;-77
2021/09/14 04:40:54;;;;;;;9.58;8.65;;;;;;;23.94;52.50;99729.03;1768890;80;21058;-77
2021/09/14 04:43:22;;;;;;;10.28;8.83;;;;;;;23.96;52.44;99726.06;1756671;80;21028;-75
2021/09/14 04:45:51;;;;;;;9.73;8.73;;;;;;;23.97;52.40;99738.02;1740931;80;21572;-78
2021/09/14 04:48:18;;;;;;;12.18;8.65;;;;;;;23.98;52.05;99732.05;1750617;80;21933;-78
2021/09/14 04:50:45;;;;;;;8.78;7.97;;;;;;;23.96;52.09;99734.20;1769057;80;21019;-78
2021/09/14 04:53:13;;;;;;;9.68;8.65;;;;;;;23.95;52.06;99736.08;1753359;79;21078;-77
2021/09/14 04:55:40;;;;;;;10.38;8.65;;;;;;;23.96;52.03;99736.38;1765384;80;21110;-77
2021/09/14 04:58:07;;;;;;;10.78;7.95;;;;;;;23.97;51.85;99744.80;1743810;80;21013;-77
2021/09/14 05:00:34;;;;;;;9.45;8.55;;;;;;;23.97;51.84;99746.67;1741999;82;21072;-77
2021/09/14 05:03:01;;;;;;;10.08;8.68;;;;;;;23.97;51.78;99748.87;1741456;80;21074;-74
2021/09/14 05:05:28;;;;;;;8.73;7.47;;;;;;;23.98;51.74;99751.85;1729008;80;21022;-73
2021/09/14 05:07:54;;;;;;;11.68;8.73;;;;;;;24.00;51.65;99750.25;1726763;82;21113;-70
2021/09/14 05:10:23;;;;;;;8.60;7.83;;;;;;;24.00;51.61;99747.53;1732235;82;21115;-72
2021/09/14 05:12:52;;;;;;;12.40;8.75;;;;;;;24.01;51.64;99750.52;1739519;80;21181;-72
2021/09/14 05:15:20;;;;;;;8.73;7.83;;;;;;;24.02;51.52;99746.73;1730499;82;21086;-74
2021/09/14 05:18:12;;;;;;;9.98;7.67;;;;;;;23.99;51.39;99745.37;1744076;82;21045;-73
2021/09/14 05:20:41;;;;;;;8.88;7.42;;;;;;;23.98;51.42;99753.21;1735327;82;21006;-74
2021/09/14 05:23:13;;;;;;;11.57;7.92;;;;;;;23.99;51.52;99751.31;1738658;82;21065;-73
2021/09/14 05:25:41;;;;;;;10.90;7.42;;;;;;;24.01;51.44;99754.58;1742184;80;21103;-74
2021/09/14 05:28:11;;;;;;;9.68;6.90;;;;;;;24.03;51.34;99758.70;1735827;82;21534;-72
2021/09/14 05:30:43;;;;;;;8.15;7.37;;;;;;;24.03;51.24;99752.43;1722393;82;21062;-73
2021/09/14 05:33:10;;;;;;;8.28;7.47;;;;;;;24.04;51.19;99746.75;1729961;82;21062;-73
2021/09/14 05:35:50;;;;;;;8.28;7.33;;;;;;;24.06;51.19;99751.38;1729188;82;21055;-71
2021/09/14 05:38:18;;;;;;;7.90;7.10;;;;;;;24.06;51.16;99750.03;1741967;82;21745;-73
2021/09/14 05:40:46;;;;;;;8.25;7.37;;;;;;;24.08;51.12;99747.88;1742386;80;21050;-73
2021/09/14 05:43:15;;;;;;;8.30;7.50;;;;;;;24.09;51.10;99748.17;1726630;82;21050;-72
2021/09/14 05:45:41;;;;;;;8.70;7.12;;;;;;;24.12;51.01;99748.99;1737556;82;21086;-71
2021/09/14 05:48:08;;;;;;;9.38;8.48;;;;;;;24.14;50.89;99744.16;1733046;82;21018;-67
2021/09/14 05:50:36;;;;;;;10.90;8.03;;;;;;;24.15;50.53;99742.25;1742673;81;21147;-68
2021/09/14 05:53:03;;;;;;;9.93;8.15;;;;;;;24.07;50.18;99750.32;1741901;82;21042;-66
2021/09/14 05:55:31;;;;;;;11.78;8.13;;;;;;;23.93;50.14;99756.70;1744038;82;21039;-66
2021/09/14 05:57:59;;;;;;;11.18;8.35;;;;;;;23.81;50.27;99757.37;1680638;84;21108;-68
2021/09/14 06:00:26;;;;;;;10.30;8.08;;;;;;;23.62;50.48;99756.05;1682692;85;21102;-68
2021/09/14 06:02:53;;;;;;;11.63;7.87;;;;;;;23.49;50.85;99758.08;1681251;85;21271;-67
2021/09/14 06:05:20;;;;;;;11.20;8.38;;;;;;;23.39;51.09;99759.84;1739253;82;21231;-68
2021/09/14 06:07:47;;;;;;;7.80;7.05;;;;;;;23.29;51.32;99761.34;1742379;82;21069;-71
2021/09/14 06:10:14;;;;;;;10.08;7.53;;;;;;;23.19;51.71;99760.41;1735886;80;21420;-71
2021/09/14 06:12:42;;;;;;;9.63;7.55;;;;;;;23.10;51.96;99761.36;1737175;81;21525;-71
2021/09/14 06:15:10;;;;;;;9.50;7.03;;;;;;;23.07;52.14;99764.05;1745164;81;21118;-73
2021/09/14 06:17:39;;;;;;;8.43;7.60;;;;;;;23.07;52.07;99759.17;1735912;82;21019;-70
2021/09/14 06:20:07;;;;;;;10.23;8.03;;;;;;;23.04;51.98;99759.11;1733831;82;21105;-70
2021/09/14 06:22:36;;;;;;;8.80;7.90;;;;;;;22.98;52.08;99758.73;1735324;82;21002;-70
2021/09/14 06:25:05;;;;;;;11.03;7.62;;;;;;;22.95;52.27;99764.66;1729455;82;21074;-70
2021/09/14 06:27:32;;;;;;;9.83;8.85;;;;;;;22.91;52.37;99764.34;1741142;81;21184;-75
2021/09/14 06:29:59;;;;;;;10.43;8.00;;;;;;;22.90;52.46;99766.75;1735357;82;21081;-69
2021/09/14 06:32:26;;;;;;;9.08;8.15;;;;;;;22.91;52.62;99764.88;1744586;82;21228;-70
2021/09/14 06:34:57;;;;;;;9.18;8.28;;;;;;;22.92;52.68;99767.31;1731506;82;21022;-70
2021/09/14 06:37:26;;;;;;;9.35;8.30;;;;;;;22.91;52.81;99764.88;1737310;82;21045;-67
2021/09/14 06:39:53;;;;;;;9.38;7.70;;;;;;;22.88;52.63;99761.30;1726065;82;21171;-69
2021/09/14 06:42:21;;;;;;;9.58;8.55;;;;;;;22.81;52.85;99753.34;1736782;82;21015;-68
2021/09/14 06:44:51;;;;;;;9.55;7.83;;;;;;;22.81;52.88;99758.75;1731257;82;21145;-69
2021/09/14 06:47:18;;;;;;;8.65;7.30;;;;;;;22.77;52.94;99754.91;1732087;81;21670;-69
2021/09/14 06:49:44;;;;;;;9.65;7.12;;;;;;;22.73;53.08;99755.12;1744265;81;21538;-69
2021/09/14 06:52:11;;;;;;;9.10;7.53;;;;;;;22.75;52.86;99759.75;1743575;81;21078;-69
2021/09/14 06:54:38;;;;;;;9.45;7.42;;;;;;;22.79;52.74;99755.47;1742152;81;21097;-69
2021/09/14 06:57:06;;;;;;;8.60;7.15;;;;;;;22.84;52.56;99760.98;1745459;80;21074;-68
2021/09/14 06:59:33;;;;;;;11.60;7.95;;;;;;;22.81;52.75;99760.65;1751771;80;21063;-69
2021/09/14 07:02:00;;;;;;;9.73;7.50;;;;;;;22.83;52.75;99760.70;1757480;80;21090;-70
2021/09/14 07:04:27;;;;;;;11.57;8.38;;;;;;;22.90;52.59;99769.45;1766021;80;21529;-71
2021/09/14 07:06:55;;;;;;;9.10;8.00;;;;;;;22.94;52.41;99771.95;1763198;80;21116;-76
2021/09/14 07:09:22;;;;;;;8.83;7.80;;;;;;;22.98;52.32;99768.21;1751222;80;21321;-80
2021/09/14 07:11:49;;;;;;;8.63;7.12;;;;;;;23.02;52.29;99766.64;1767996;80;21073;-71
2021/09/14 07:14:15;;;;;;;11.22;7.55;;;;;;;23.06;52.30;99769.16;1762030;79;21101;-70
2021/09/14 07:16:43;;;;;;;11.97;8.70;;;;;;;23.11;52.36;99777.92;1758712;80;21210;-71
2021/09/14 07:19:11;;;;;;;9.48;7.50;;;;;;;23.14;52.30;99777.40;1750772;80;21516;-70
2021/09/14 07:21:39;;;;;;;8.48;6.80;;;;;;;23.18;52.05;99773.66;1770942;80;21077;-71
2021/09/14 07:24:07;;;;;;;8.13;6.90;;;;;;;23.16;51.97;99783.41;1766672;80;21136;-71
2021/09/14 07:26:33;;;;;;;9.20;6.53;;;;;;;23.16;51.92;99779.35;1764929;80;21117;-70
2021/09/14 07:28:59;;;;;;;6.80;6.03;;;;;;;23.21;52.01;99784.01;1765385;80;21124;-71
2021/09/14 07:31:30;;;;;;;6.70;5.65;;;;;;;23.27;51.93;99787.87;1756046;80;21546;-73
2021/09/14 07:33:54;;;;;;;7.05;5.62;;;;;;;23.32;51.63;99785.79;1733083;82;21093;-71
2021/09/14 07:36:21;;;;;;;8.48;5.92;;;;;;;23.39;51.26;99787.75;1768091;80;20978;-69
2021/09/14 07:38:47;;;;;;;5.78;5.28;;;;;;;23.45;51.03;99784.58;1758029;79;21010;-69
2021/09/14 07:41:14;;;;;;;6.87;5.53;;;;;;;23.50;50.83;99783.30;1764457;80;21135;-68
2021/09/14 07:43:40;;;;;;;9.65;5.70;;;;;;;23.53;50.64;99781.45;1764038;80;21078;-69
2021/09/14 07:46:09;;;;;;;6.97;4.90;;;;;;;23.59;50.73;99777.72;1769501;80;21097;-69
2021/09/14 07:48:37;;;;;;;7.92;5.40;;;;;;;23.64;50.51;99779.14;1716603;83;21065;-71
2021/09/14 07:51:03;;;;;;;8.98;5.20;;;;;;;23.68;50.56;99771.30;1765698;80;21070;-69
2021/09/14 07:53:31;;;;;;;6.25;4.67;;;;;;;23.75;50.57;99774.64;1764152;80;21466;-70
2021/09/14 07:55:57;;;;;;;5.50;4.80;;;;;;;23.79;50.43;99774.44;1770008;80;20991;-72
2021/09/14 07:58:24;;;;;;;5.83;4.53;;;;;;;23.85;50.57;99772.60;1769055;80;21085;-67
2021/09/14 08:00:51;;;;;;;6.65;5.10;;;;;;;23.90;50.43;99776.19;1770111;80;21093;-71
2021/09/14 08:03:17;;;;;;;6.95;4.72;;;;;;;23.96;50.53;99768.12;1762253;80;21097;-70
2021/09/14 08:05:44;;;;;;;6.15;5.05;;;;;;;23.99;50.53;99767.07;1759508;80;21479;-71
2021/09/14 08:08:11;;;;;;;4.80;4.08;;;;;;;24.07;50.93;99773.93;1764850;80;21019;-69
2021/09/14 08:10:38;;;;;;;5.80;4.83;;;;;;;24.11;50.43;99772.34;1757548;80;21104;-69
2021/09/14 08:13:04;;;;;;;6.28;4.65;;;;;;;24.17;50.37;99773.20;1760220;79;21596;-68
2021/09/14 08:15:33;;;;;;;5.97;4.58;;;;;;;24.22;49.97;99770.52;1759703;80;21073;-70
2021/09/14 08:17:59;;;;;;;7.03;4.50;;;;;;;24.28;49.87;99770.84;1769093;80;21304;-71
2021/09/14 08:20:27;;;;;;;7.47;6.37;;;;;;;24.33;49.68;99770.90;1762580;80;21062;-69
2021/09/14 08:22:54;;;;;;;5.83;4.28;;;;;;;24.38;49.55;99772.31;1753865;80;21089;-69
2021/09/14 08:25:21;;;;;;;6.67;4.35;;;;;;;24.43;48.91;99776.41;1764498;80;21463;-69
2021/09/14 08:27:47;;;;;;;5.30;4.12;;;;;;;24.47;48.93;99768.05;1757519;80;21073;-71
2021/09/14 08:30:14;;;;;;;9.88;5.05;;;;;;;24.55;48.87;99774.93;1764766;80;21147;-70
2021/09/14 08:32:41;;;;;;;5.33;3.92;;;;;;;24.63;48.90;99772.27;1772540;80;21081;-68
2021/09/14 08:35:09;;;;;;;6.40;3.50;;;;;;;24.71;48.53;99770.42;1772298;80;21069;-69
2021/09/14 08:37:38;;;;;;;4.05;3.70;;;;;;;24.77;48.11;99772.09;1765327;80;21094;-68
2021/09/14 08:40:06;;;;;;;6.60;3.35;;;;;;;24.82;48.01;99774.85;1763373;79;21160;-71
2021/09/14 08:42:36;;;;;;;10.15;3.72;;;;;;;24.85;47.73;99781.10;1763300;79;21108;-70
2021/09/14 08:45:06;;;;;;;7.35;3.90;;;;;;;24.89;47.35;99778.69;1753253;80;21046;-73
2021/09/14 08:47:33;;;;;;;7.03;3.08;;;;;;;24.92;47.47;99779.53;1755438;80;21025;-71
2021/09/14 08:50:00;;;;;;;6.37;3.22;;;;;;;24.96;46.96;99777.92;1743460;80;21133;-71
2021/09/14 08:52:26;;;;;;;4.78;3.25;;;;;;;24.99;46.96;99771.14;1756537;79;21051;-70
2021/09/14 08:54:53;;;;;;;6.08;3.20;;;;;;;25.04;46.99;99776.61;1742210;80;21011;-69
2021/09/14 08:57:21;;;;;;;4.42;3.10;;;;;;;25.09;47.33;99774.74;1755797;80;21031;-68
2021/09/14 08:59:48;;;;;;;3.98;3.15;;;;;;;25.17;46.79;99772.06;1750653;80;21532;-69
2021/09/14 09:02:20;;;;;;;7.35;3.42;;;;;;;25.24;46.34;99768.58;1763978;80;21101;-71
2021/09/14 09:05:03;;;;;;;7.05;3.42;;;;;;;25.29;46.67;99770.52;1763906;80;20986;-75
2021/09/14 09:07:36;;;;;;;6.22;3.72;;;;;;;25.44;46.10;99771.11;1767673;79;21529;-72
2021/09/14 09:10:12;;;;;;;5.80;3.60;;;;;;;25.44;46.10;99771.11;1762750;80;21522;-73
2021/09/14 09:12:43;;;;;;;5.35;3.62;;;;;;;25.54;45.98;99774.44;1771729;80;21620;-73
2021/09/14 09:15:28;;;;;;;8.28;3.10;;;;;;;25.62;45.71;99767.92;1747949;80;21019;-73
2021/09/14 09:18:09;;;;;;;5.30;3.37;;;;;;;25.72;45.58;99769.86;1747826;80;21025;-68
2021/09/14 09:20:42;;;;;;;4.72;3.40;;;;;;;25.80;44.97;99764.44;1757367;80;21162;-67
2021/09/14 09:23:18;;;;;;;5.53;3.77;;;;;;;25.88;44.92;99769.34;1773554;80;21278;-68
2021/09/14 09:25:45;;;;;;;5.33;3.70;;;;;;;25.95;43.83;99762.33;1763718;79;21114;-67
2021/09/14 09:28:18;;;;;;;4.58;3.08;;;;;;;26.02;43.25;99762.34;1766333;80;21589;-69
2021/09/14 09:30:59;;;;;;;6.47;4.97;;;;;;;26.06;43.10;99757.99;1756750;80;21596;-67
2021/09/14 09:33:33;;;;;;;11.60;8.73;;;;;;;26.12;43.26;99756.09;1753318;80;21792;-68
2021/09/14 09:36:06;;;;;;;9.25;7.10;;;;;;;26.21;43.23;99753.64;1767480;79;21088;-68
2021/09/14 09:38:55;;;;;;;7.78;5.15;;;;;;;26.27;43.24;99748.49;1761061;80;21133;-68
2021/09/14 09:41:18;;;;;;;5.10;4.37;;;;;;;26.35;43.63;99752.03;1770613;79;21206;-68
2021/09/14 09:43:47;;;;;;;5.03;3.55;;;;;;;26.42;44.26;99752.55;1751505;79;21555;-68
2021/09/14 09:46:19;;;;;;;4.22;3.33;;;;;;;26.49;43.22;99750.92;1774885;79;21147;-69
2021/09/14 09:48:45;;;;;;;3.95;3.47;;;;;;;26.55;42.21;99753.91;1765375;80;21041;-67
2021/09/14 09:51:12;;;;;;;4.45;3.83;;;;;;;26.62;42.13;99756.41;1766290;80;21534;-69
2021/09/14 09:53:38;;;;;;;8.18;4.47;;;;;;;26.71;42.82;99758.02;1759663;80;21541;-67
2021/09/14 09:56:06;;;;;;;7.42;4.58;;;;;;;26.77;43.02;99756.38;1768316;80;21085;-67
2021/09/14 09:58:33;;;;;;;4.90;3.83;;;;;;;26.83;43.35;99758.53;1774162;80;21146;-66
2021/09/14 10:01:17;;;;;;;4.40;3.80;;;;;;;26.88;43.71;99759.34;1769118;80;21224;-68
2021/09/14 10:04:07;;;;;;;5.58;3.92;;;;;;;26.93;43.45;99765.34;1761220;80;21073;-66
2021/09/14 10:06:42;;;;;;;4.45;3.60;;;;;;;26.97;42.74;99764.25;1748294;80;21022;-67
2021/09/14 10:09:09;;;;;;;4.10;3.70;;;;;;;27.02;42.42;99758.23;1759536;80;21062;-70
2021/09/14 10:11:37;;;;;;;6.80;3.30;;;;;;;27.05;42.63;99756.30;1750854;80;21054;-65
2021/09/14 10:14:08;;;;;;;4.10;3.52;;;;;;;27.10;42.96;99762.30;1764261;80;21062;-69
2021/09/14 10:16:38;;;;;;;3.85;3.45;;;;;;;27.15;43.32;99763.63;1752069;80;21097;-73
2021/09/14 10:19:29;;;;;;;5.58;3.50;;;;;;;27.20;43.47;99758.73;1763311;79;21082;-72
2021/09/14 10:22:05;;;;;;;6.15;3.83;;;;;;;27.22;43.50;99766.89;1705645;83;21094;-76
2021/09/14 10:24:33;;;;;;;5.22;4.00;;;;;;;27.24;43.44;99763.37;1704630;82;21350;-70
2021/09/14 10:27:12;;;;;;;3.52;3.22;;;;;;;27.27;43.48;99770.16;1755250;80;21061;-70
2021/09/14 10:29:40;;;;;;;5.53;3.35;;;;;;;27.28;43.64;99766.36;1768167;80;21528;-69
2021/09/14 10:32:12;;;;;;;5.53;3.65;;;;;;;27.32;43.67;99767.43;1777113;80;21038;-68
2021/09/14 10:34:42;;;;;;;4.58;3.35;;;;;;;27.35;43.58;99766.05;1755681;79;21047;-71
2021/09/14 10:37:09;;;;;;;5.45;3.15;;;;;;;27.39;43.52;99761.66;1770661;80;21212;-69
2021/09/14 10:39:42;;;;;;;5.87;3.75;;;;;;;27.41;42.75;99768.49;1766266;80;21013;-68
2021/09/14 10:42:22;;;;;;;4.10;3.50;;;;;;;27.44;42.13;99768.47;1758479;80;21092;-68
2021/09/14 10:44:51;;;;;;;4.28;3.40;;;;;;;27.44;42.08;99763.02;1773385;79;21028;-69
2021/09/14 10:47:22;;;;;;;3.42;3.12;;;;;;;27.44;42.18;99759.73;1756029;80;21104;-70
2021/09/14 10:50:03;;;;;;;3.83;3.12;;;;;;;27.47;41.98;99759.73;1765445;80;21545;-69
2021/09/14 10:52:37;;;;;;;3.92;3.00;;;;;;;27.50;41.67;99759.16;1707185;83;21026;-69
2021/09/14 10:55:11;;;;;;;3.60;3.27;;;;;;;27.54;42.21;99752.05;1758564;80;21073;-68
2021/09/14 10:57:45;;;;;;;3.70;3.40;;;;;;;27.60;42.12;99746.02;1752676;80;21025;-69
2021/09/14 11:00:15;;;;;;;5.45;3.50;;;;;;;27.65;41.97;99750.91;1750531;80;21146;-68
2021/09/14 11:02:43;;;;;;;3.50;3.20;;;;;;;27.71;42.31;99744.06;1764271;79;21110;-67
2021/09/14 11:05:10;;;;;;;4.12;3.58;;;;;;;27.75;42.45;99743.20;1767060;79;21000;-67
2021/09/14 11:07:36;;;;;;;3.55;2.80;;;;;;;27.79;42.49;99744.82;1783062;79;21094;-68
2021/09/14 11:10:11;;;;;;;3.85;3.45;;;;;;;27.81;42.45;99750.81;1759530;80;21049;-71
2021/09/14 11:12:33;;;;;;;3.35;3.05;;;;;;;27.85;42.30;99751.34;1750868;80;21008;-69
2021/09/14 11:15:00;;;;;;;4.95;4.12;;;;;;;27.90;42.31;99746.42;1752329;80;21874;-69
2021/09/14 11:17:33;;;;;;;3.55;3.25;;;;;;;27.94;42.34;99750.22;1757105;79;21057;-69
2021/09/14 11:20:14;;;;;;;3.65;3.33;;;;;;;28.00;42.28;99744.17;1761169;79;21056;-70
2021/09/14 11:22:41;;;;;;;4.20;3.58;;;;;;;28.06;42.24;99751.22;1749869;80;21050;-70
2021/09/14 11:25:16;;;;;;;4.70;3.58;;;;;;;28.10;42.15;99748.19;1762842;79;21048;-70
2021/09/14 11:28:07;;;;;;;4.10;3.70;;;;;;;28.15;42.07;99744.06;1752233;80;21758;-69
2021/09/14 11:30:37;;;;;;;3.72;3.42;;;;;;;28.20;41.95;99745.92;1756438;80;21105;-69
2021/09/14 11:33:05;;;;;;;4.40;2.90;;;;;;;28.24;41.84;99741.55;1763529;80;21102;-69
2021/09/14 11:35:36;;;;;;;3.98;3.35;;;;;;;28.29;41.73;99737.95;1748012;80;21065;-69
2021/09/14 11:38:06;;;;;;;;;;;;;;;28.33;41.71;99734.34;1770294;80;21164;-68
2021/09/14 11:40:37;;;;;;;3.15;2.85;;;;;;;28.39;41.53;99732.39;1765845;80;21845;-69
2021/09/14 11:43:04;;;;;;;7.05;3.30;;;;;;;28.39;41.54;99726.92;1747679;80;21014;-69
2021/09/14 11:45:32;;;;;;;4.60;3.15;;;;;;;28.40;41.47;99730.74;1766946;80;21049;-72
2021/09/14 11:48:00;;;;;;;5.50;2.98;;;;;;;28.44;41.45;99726.33;1777066;79;21028;-71
2021/09/14 11:50:31;;;;;;;5.33;2.80;;;;;;;28.50;39.75;99733.94;1781830;80;21530;-74
2021/09/14 11:53:11;;;;;;;8.13;2.98;;;;;;;28.56;38.00;99732.00;1762743;80;21050;-72
2021/09/14 11:55:47;;;;;;;5.37;2.90;;;;;;;28.61;39.02;99733.33;1781359;79;21003;-75
2021/09/14 11:58:16;;;;;;;8.38;3.77;;;;;;;28.62;39.65;99728.11;1766228;79;21081;-73
2021/09/14 12:00:46;;;;;;;7.05;3.35;;;;;;;28.63;39.96;99731.12;1778472;79;21506;-75
2021/09/14 12:03:18;;;;;;;4.97;3.20;;;;;;;28.62;40.27;99730.84;1769540;80;21045;-73
2021/09/14 12:05:57;;;;;;;5.05;3.20;;;;;;;28.59;40.55;99729.52;1768313;80;21425;-72
2021/09/14 12:08:31;;;;;;;7.58;3.17;;;;;;;28.56;40.53;99738.27;1770484;80;21018;-72
2021/09/14 12:10:59;;;;;;;4.72;3.37;;;;;;;28.53;40.54;99732.03;1767631;80;21046;-75
2021/09/14 12:13:26;;;;;;;6.05;3.65;;;;;;;28.62;40.51;99732.21;1767749;79;21022;-75
2021/09/14 12:15:58;;;;;;;4.72;2.83;;;;;;;28.72;40.55;99729.92;1779299;79;21042;-77
2021/09/14 12:18:24;;;;;;;5.83;3.15;;;;;;;28.95;40.40;99730.48;1728156;79;21157;-76
2021/09/14 12:20:50;;;;;;;5.37;3.17;;;;;;;29.15;40.33;99722.65;1779056;80;21056;-74
2021/09/14 12:23:17;;;;;;;4.90;2.90;;;;;;;29.29;40.09;99735.05;1763256;80;21563;-74
2021/09/14 12:25:45;;;;;;;4.20;2.80;;;;;;;29.31;39.58;99728.73;1777406;80;21034;-77
2021/09/14 12:28:12;;;;;;;5.33;3.15;;;;;;;29.29;39.24;99730.95;1772281;80;21548;-77
2021/09/14 12:30:40;;;;;;;3.98;3.05;;;;;;;29.27;39.38;99731.80;1759717;80;21057;-80
2021/09/14 12:33:09;;;;;;;5.30;2.77;;;;;;;29.26;38.87;99729.34;1768492;79;21054;-75
2021/09/14 12:35:37;;;;;;;5.65;2.80;;;;;;;29.24;39.20;99732.94;1778397;79;21105;-81
2021/09/14 12:38:05;;;;;;;3.20;2.90;;;;;;;29.23;39.46;99728.59;1742785;79;21093;-80
2021/09/14 12:40:31;;;;;;;6.15;3.10;;;;;;;29.20;39.61;99732.14;1764708;79;21045;-79
2021/09/14 12:42:57;;;;;;;3.58;2.67;;;;;;;29.20;39.74;99729.97;1749960;80;21153;-81